createdAt,value
2016-10-04T08:35:01.152Z,49.1
2016-10-04T08:36:08.600Z,49.0
2016-10-04T08:38:09.237Z,49.3
2016-10-04T08:40:05.868Z,49.4
2016-10-04T08:42:16.524Z,49.8
2016-10-04T08:44:08.909Z,49.9
2016-10-04T08:46:06.005Z,49.9
2016-10-04T08:48:06.118Z,49.7
2016-10-04T08:50:08.302Z,49.9
2016-10-04T08:52:05.740Z,49.8
2016-10-04T08:54:06.371Z,49.7
2016-10-04T08:56:06.386Z,48.8
2016-10-04T08:58:08.548Z,50.3
2016-10-04T09:00:06.005Z,50.3
2016-10-04T09:02:08.832Z,50.4
2016-10-04T09:04:06.346Z,50.4
2016-10-04T09:06:06.046Z,51.4
2016-10-04T09:08:05.758Z,53.1
2016-10-04T09:10:11.194Z,48.6
2016-10-04T09:12:05.437Z,48.1
2016-10-04T09:14:08.479Z,47.6
2016-10-04T09:16:06.019Z,47.3
2016-10-04T09:18:09.127Z,46.5
2016-10-04T09:20:09.164Z,46.5
2016-10-04T09:22:10.950Z,46.1
2016-10-04T09:24:16.795Z,46.0
2016-10-04T09:26:06.196Z,46.1
2016-10-04T09:28:05.702Z,45.7
2016-10-04T09:30:06.328Z,45.6
2016-10-04T09:32:05.832Z,45.5
2016-10-04T09:34:08.402Z,45.1
2016-10-04T09:36:06.582Z,45.1
2016-10-04T09:38:08.792Z,45.5
2016-10-04T09:40:06.594Z,45.5
2016-10-04T09:42:06.887Z,45.4
2016-10-04T09:44:11.089Z,45.2
2016-10-04T09:46:09.105Z,44.9
2016-10-04T09:48:08.926Z,44.8
2016-10-04T09:50:07.090Z,44.5
2016-10-04T09:52:07.184Z,44.6
2016-10-04T09:54:05.467Z,44.7
2016-10-04T09:56:05.902Z,44.6
2016-10-04T09:58:06.431Z,44.8
2016-10-04T10:00:06.042Z,44.9
2016-10-04T10:02:16.752Z,44.5
2016-10-04T10:04:08.014Z,44.5
2016-10-04T10:06:06.567Z,45.2
2016-10-04T10:08:06.615Z,44.3
2016-10-04T10:10:06.526Z,44.7
2016-10-04T10:12:06.128Z,44.6
2016-10-04T10:14:05.938Z,44.6
2016-10-04T10:16:06.363Z,44.3
2016-10-04T10:18:05.966Z,44.6
2016-10-04T10:20:06.860Z,44.3
2016-10-04T10:22:07.040Z,44.1
2016-10-04T10:24:06.517Z,44.3
2016-10-04T10:26:10.934Z,44.3
2016-10-04T10:28:06.444Z,44.3
2016-10-04T10:30:06.154Z,44.3
2016-10-04T10:32:05.435Z,44.0
2016-10-04T10:34:05.873Z,43.9
2016-10-04T10:36:06.301Z,43.6
2016-10-04T10:38:05.364Z,43.8
2016-10-04T10:40:06.228Z,43.2
2016-10-04T10:42:05.403Z,42.9
2016-10-04T10:44:06.360Z,43.1
2016-10-04T10:46:05.866Z,43.3
2016-10-04T10:48:06.494Z,43.3
2016-10-04T10:50:11.265Z,43.3
2016-10-04T10:52:05.428Z,43.3
2016-10-04T10:54:05.920Z,43.6
2016-10-04T10:56:06.448Z,43.4
2016-10-04T10:58:06.156Z,43.1
2016-10-04T11:00:08.691Z,43.2
2016-10-04T11:02:06.295Z,43.2
2016-10-04T11:04:06.757Z,43.0
2016-10-04T11:06:09.094Z,43.1
2016-10-04T11:08:06.680Z,43.0
2016-10-04T11:10:06.145Z,42.9
2016-10-04T11:12:08.304Z,42.4
2016-10-04T11:14:05.430Z,42.4
2016-10-04T11:16:05.873Z,42.4
2016-10-04T11:18:08.246Z,42.4
2016-10-04T11:20:06.599Z,42.4
2016-10-04T11:22:06.224Z,42.5
2016-10-04T11:24:10.908Z,42.1
2016-10-04T11:26:08.876Z,42.3
2016-10-04T11:28:11.197Z,42.0
2016-10-04T11:30:05.770Z,42.0
2016-10-04T11:32:08.551Z,42.0
2016-10-04T11:34:06.007Z,41.9
2016-10-04T11:36:09.051Z,41.8
2016-10-04T11:38:11.340Z,41.6
2016-10-04T11:40:05.843Z,41.6
2016-10-04T11:42:06.372Z,41.8
2016-10-04T11:44:05.872Z,41.7
2016-10-04T11:46:11.283Z,41.3
2016-10-04T11:48:05.799Z,41.3
2016-10-04T11:50:13.915Z,41.2
2016-10-04T11:52:08.758Z,41.4
2016-10-04T11:54:06.251Z,41.4
2016-10-04T11:56:05.757Z,41.5
2016-10-04T11:58:08.226Z,41.0
2016-10-04T12:00:08.449Z,40.5
2016-10-04T12:02:06.515Z,40.8
2016-10-04T12:04:06.030Z,40.8
2016-10-04T12:06:06.546Z,40.8
2016-10-04T12:08:06.560Z,40.8
2016-10-04T12:10:06.473Z,40.8
2016-10-04T12:12:11.305Z,40.4
2016-10-04T12:14:05.888Z,40.6
2016-10-04T12:16:06.410Z,40.1
2016-10-04T12:18:05.712Z,40.1
2016-10-04T12:20:08.433Z,39.7
2016-10-04T12:22:05.944Z,39.7
2016-10-04T12:24:08.888Z,39.9
2016-10-04T12:26:08.898Z,40.3
2016-10-04T12:28:05.889Z,40.3
2016-10-04T12:30:08.809Z,41.0
2016-10-04T12:32:11.161Z,42.5
2016-10-04T12:34:05.382Z,42.6
2016-10-04T12:36:06.577Z,41.7
2016-10-04T12:38:06.172Z,45.5
2016-10-04T12:40:05.414Z,44.9
2016-10-04T12:42:05.893Z,44.9
2016-10-04T12:44:06.315Z,44.7
2016-10-04T12:46:08.379Z,44.8
2016-10-04T12:48:08.494Z,44.4
2016-10-04T12:50:06.669Z,44.7
2016-10-04T12:52:07.190Z,44.7
2016-10-04T12:54:08.943Z,44.8
2016-10-04T12:56:07.087Z,44.7
2016-10-04T12:58:06.518Z,44.1
2016-10-04T13:00:08.577Z,44.5
2016-10-04T13:02:06.036Z,44.5
2016-10-04T13:04:06.354Z,44.5
2016-10-04T13:06:05.868Z,41.4
2016-10-04T13:08:06.487Z,43.5
2016-10-04T13:10:06.501Z,44.9
2016-10-04T13:12:06.109Z,45.2
2016-10-04T13:14:05.375Z,44.5
2016-10-04T13:16:06.036Z,44.4
2016-10-04T13:18:05.843Z,44.4
2016-10-04T13:20:11.110Z,43.5
2016-10-04T13:22:10.662Z,43.5
2016-10-04T13:24:06.304Z,43.8
2016-10-04T13:26:08.158Z,44.0
2016-10-04T13:28:05.371Z,43.8
2016-10-04T13:30:05.833Z,43.4
2016-10-04T13:32:06.253Z,43.4
2016-10-04T13:34:05.434Z,43.1
2016-10-04T13:36:10.582Z,43.3
2016-10-04T13:38:06.667Z,43.6
2016-10-04T13:40:08.360Z,43.2
2016-10-04T13:42:10.890Z,43.2
2016-10-04T13:44:11.166Z,43.2
2016-10-04T13:46:06.152Z,42.9
2016-10-04T13:48:06.374Z,43.0
2016-10-04T13:50:05.977Z,42.8
2016-10-04T13:52:06.203Z,42.8
2016-10-04T13:54:05.378Z,43.0
2016-10-04T13:56:08.665Z,43.0
2016-10-04T13:58:06.345Z,43.0
2016-10-04T14:00:05.938Z,43.1
2016-10-04T14:02:05.760Z,43.0
2016-10-04T14:04:06.284Z,43.5
2016-10-04T14:06:05.893Z,42.7
2016-10-04T14:08:08.824Z,43.3
2016-10-04T14:10:10.790Z,43.7
2016-10-04T14:12:10.797Z,43.5
2016-10-04T14:14:06.257Z,43.5
2016-10-04T14:16:05.862Z,43.0
2016-10-04T14:18:06.490Z,43.5
2016-10-04T14:20:05.996Z,43.0
2016-10-04T14:22:06.417Z,43.0
2016-10-04T14:24:06.030Z,43.2
2016-10-04T14:26:11.292Z,38.9
2016-10-04T14:28:05.853Z,39.3
2016-10-04T14:30:06.277Z,42.8
2016-10-04T14:32:13.153Z,42.4
2016-10-04T14:34:08.352Z,42.6
2016-10-04T14:36:05.705Z,42.6
2016-10-04T14:38:06.234Z,42.2
2016-10-04T14:40:09.111Z,38.3
2016-10-04T14:42:09.032Z,38.3
2016-10-04T14:44:06.210Z,39.1
2016-10-04T14:46:05.453Z,42.5
2016-10-04T14:48:08.662Z,41.9
2016-10-04T14:50:06.215Z,42.2
2016-10-04T14:52:08.593Z,36.9
2016-10-04T14:54:06.241Z,36.9
2016-10-04T14:56:05.888Z,36.7
2016-10-04T14:58:08.921Z,36.8
2016-10-04T15:00:06.579Z,36.8
2016-10-04T15:02:05.778Z,36.9
2016-10-04T15:04:06.454Z,36.7
2016-10-04T15:06:06.050Z,36.8
2016-10-04T15:08:06.043Z,36.9
2016-10-04T15:10:10.816Z,36.6
2016-10-04T15:12:05.871Z,36.6
2016-10-04T15:14:08.908Z,36.8
2016-10-04T15:16:06.932Z,36.8
2016-10-04T15:18:05.297Z,36.9
2016-10-04T15:20:07.093Z,36.8
2016-10-04T15:22:07.221Z,37.1
2016-10-04T15:24:07.070Z,36.9
2016-10-04T15:26:07.195Z,36.6
2016-10-04T15:28:09.033Z,36.8
2016-10-04T15:30:07.274Z,36.8
2016-10-04T15:32:06.214Z,36.9
2016-10-04T15:34:05.921Z,36.9
2016-10-04T15:36:06.718Z,36.6
2016-10-04T15:38:13.735Z,36.6
2016-10-04T15:40:08.613Z,36.6
2016-10-04T15:42:06.083Z,36.5
2016-10-04T15:44:08.148Z,36.3
2016-10-04T15:46:06.526Z,36.3
2016-10-04T15:48:06.129Z,36.1
2016-10-04T15:50:05.379Z,35.9
2016-10-04T15:52:05.849Z,35.7
2016-10-04T15:54:06.276Z,35.8
2016-10-04T15:56:10.665Z,35.6
2016-10-04T15:58:11.057Z,35.2
2016-10-04T16:00:06.612Z,35.2
2016-10-04T16:02:08.584Z,35.1
2016-10-04T16:04:06.049Z,35.1
2016-10-04T16:06:08.961Z,35.4
2016-10-04T16:08:06.580Z,35.2
2016-10-04T16:10:08.626Z,35.6
2016-10-04T16:12:05.764Z,35.6
2016-10-04T16:14:16.359Z,35.9
2016-10-04T16:16:05.822Z,35.9
2016-10-04T16:18:06.647Z,35.7
2016-10-04T16:20:05.304Z,35.7
2016-10-04T16:22:05.864Z,35.9
2016-10-04T16:24:06.583Z,35.8
2016-10-04T16:26:06.000Z,35.8
2016-10-04T16:28:06.793Z,36.1
2016-10-04T16:30:13.592Z,36.3
2016-10-04T16:32:06.964Z,36.2
2016-10-04T16:34:07.029Z,36.1
2016-10-04T16:36:06.482Z,36.3
2016-10-04T16:38:06.587Z,36.4
2016-10-04T16:40:06.005Z,36.3
2016-10-04T16:42:06.607Z,36.3
2016-10-04T16:44:06.133Z,36.4
2016-10-04T16:46:06.196Z,36.2
2016-10-04T16:48:08.205Z,36.2
2016-10-04T16:50:06.576Z,36.2
2016-10-04T16:52:05.346Z,36.3
2016-10-04T16:54:06.104Z,36.1
2016-10-04T16:56:05.413Z,36.4
2016-10-04T16:58:08.489Z,36.2
2016-10-04T17:00:06.144Z,36.2
2016-10-04T17:02:05.297Z,36.2
2016-10-04T17:04:05.762Z,36.2
2016-10-04T17:06:06.572Z,36.8
2016-10-04T17:08:06.307Z,36.3
2016-10-04T17:10:06.338Z,36.2
2016-10-04T17:12:06.232Z,36.5
2016-10-04T17:14:06.354Z,36.3
2016-10-04T17:16:08.875Z,36.4
2016-10-04T17:18:06.371Z,36.4
2016-10-04T17:20:05.980Z,36.6
2016-10-04T17:22:05.464Z,36.5
2016-10-04T17:24:10.751Z,36.7
2016-10-04T17:26:09.080Z,37.1
2016-10-04T17:28:10.964Z,37.3
2016-10-04T17:30:08.560Z,37.5
2016-10-04T17:32:06.931Z,37.2
2016-10-04T17:34:08.975Z,37.4
2016-10-04T17:36:08.896Z,37.5
2016-10-04T17:38:06.216Z,37.5
2016-10-04T17:40:05.777Z,37.5
2016-10-04T17:42:07.089Z,37.7
2016-10-04T17:44:06.553Z,37.7
2016-10-04T17:46:07.202Z,38.0
2016-10-04T17:48:14.066Z,38.0
2016-10-04T17:50:09.234Z,38.0
2016-10-04T17:52:06.623Z,38.2
2016-10-04T17:54:09.132Z,38.2
2016-10-04T17:56:08.895Z,38.5
2016-10-04T17:58:13.830Z,38.4
2016-10-04T18:00:07.116Z,38.4
2016-10-04T18:02:06.491Z,38.4
2016-10-04T18:04:09.198Z,38.8
2016-10-04T18:06:06.519Z,38.8
2016-10-04T18:08:09.183Z,38.8
2016-10-04T18:10:08.798Z,39.1
2016-10-04T18:12:06.717Z,38.9
2016-10-04T18:14:09.172Z,39.1
2016-10-04T18:16:06.493Z,39.1
2016-10-04T18:18:15.499Z,39.1
2016-10-04T18:20:07.202Z,39.3
2016-10-04T18:22:06.995Z,39.3
2016-10-04T18:24:08.692Z,39.4
2016-10-04T18:26:09.458Z,39.3
2016-10-04T18:28:07.053Z,39.4
2016-10-04T18:30:09.009Z,39.4
2016-10-04T18:32:10.915Z,39.4
2016-10-04T18:34:13.425Z,39.5
2016-10-04T18:36:06.773Z,39.5
2016-10-04T18:38:06.243Z,39.5
2016-10-04T18:40:09.089Z,39.6
2016-10-04T18:42:08.832Z,39.6
2016-10-04T18:44:06.575Z,39.6
2016-10-04T18:46:07.306Z,39.7
2016-10-04T18:48:06.557Z,39.7
2016-10-04T18:50:12.481Z,39.8
2016-10-04T18:52:06.670Z,40.0
2016-10-04T18:54:06.603Z,40.0
2016-10-04T18:56:06.969Z,40.0
2016-10-04T18:58:06.644Z,40.1
2016-10-04T19:00:06.701Z,40.2
2016-10-04T19:02:06.971Z,40.1
2016-10-04T19:04:06.581Z,40.1
2016-10-04T19:06:09.567Z,40.2
2016-10-04T19:08:06.778Z,40.2
